D/T METAR WX W/DIR W/SPE G/SPE TEMP DEWP
20/02/20 08:20 EGNV 200820Z 19020G30KT 9999 FEW017 BKN022 09/06 Q0995 S (190°) 23.0mph 34.5mph 9°C 6°C
20/02/20 07:50 EGNV 200750Z 18018KT 9999 FEW018 BKN025 09/06 Q0996 S (180°) 20.7mph 9°C 6°C
20/02/20 07:20 EGNV 200720Z 19017KT 9999 FEW017 SCT025 09/06 Q0996 S (190°) 19.6mph 9°C 6°C
20/02/20 06:50 EGNV 200650Z 18018KT 9999 FEW015 SCT025 09/06 Q0997 S (180°) 20.7mph 9°C 6°C
20/02/20 06:20 EGNV 200620Z 19018KT 9999 FEW019 SCT025 10/07 Q0997 S (190°) 20.7mph 10°C 7°C
20/02/20 05:50 EGNV 200550Z 19018KT 9999 FEW017 SCT030 10/07 Q0998 S (190°) 20.7mph 10°C 7°C
20/02/20 05:20 EGNV 200520Z 20020KT 9999 FEW017 SCT025 10/07 Q0998 SSW (200°) 23.0mph 10°C 7°C
19/02/20 21:50 EGNV 192150Z 18014KT 9999 FEW019 BKN025 08/07 Q1003 S (180°) 16.1mph 8°C 7°C
19/02/20 21:20 EGNV 192120Z 18015KT 9999 BKN021 08/06 Q1004 S (180°) 17.3mph 8°C 6°C
19/02/20 20:50 EGNV 192050Z 19020KT 9999 FEW020 BKN025 08/06 Q1004 S (190°) 23.0mph 8°C 6°C
19/02/20 19:50 EGNV 191950Z 17013KT 9999 FEW018 BKN021 07/06 Q1005 S (170°) 15.0mph 7°C 6°C
19/02/20 19:20 EGNV 191920Z 18016KT 9999 FEW017 BKN025 07/06 Q1005 S (180°) 18.4mph 7°C 6°C
19/02/20 18:50 EGNV 191850Z 18016KT 9999 -RA FEW018 BKN024 07/05 Q1005 -RA S (180°) 18.4mph 7°C 5°C
19/02/20 18:20 EGNV 191820Z 17017KT 9999 FEW018 BKN025 06/05 Q1006 S (170°) 19.6mph 6°C 5°C
19/02/20 17:50 EGNV 191750Z 17017KT 9999 FEW015 BKN025 06/04 Q1006 S (170°) 19.6mph 6°C 4°C
19/02/20 16:50 EGNV 191650Z 17012KT 9999 FEW015 SCT021 06/04 Q1007 S (170°) 13.8mph 6°C 4°C
19/02/20 16:20 EGNV 191620Z 17012KT 9999 FEW015 SCT030 05/03 Q1008 S (170°) 13.8mph 5°C 3°C
19/02/20 15:50 EGNV 191550Z 17013KT 9999 FEW017 05/03 Q1009 S (170°) 15.0mph 5°C 3°C
19/02/20 15:20 EGNV 191520Z 18015KT 9999 FEW018 05/03 Q1009 S (180°) 17.3mph 5°C 3°C
19/02/20 14:50 EGNV 191450Z 18013KT 9999 SCT018 05/03 Q1010 S (180°) 15.0mph 5°C 3°C
19/02/20 14:20 EGNV 191420Z 18014KT 9999 FEW022 06/03 Q1011 S (180°) 16.1mph 6°C 3°C
19/02/20 13:50 EGNV 191350Z 19014KT 9999 FEW022 06/03 Q1011 S (190°) 16.1mph 6°C 3°C
19/02/20 13:20 EGNV 191320Z 20013KT 9999 FEW020 SCT026 06/02 Q1012 SSW (200°) 15.0mph 6°C 2°C
19/02/20 12:50 EGNV 191250Z 21013KT 9999 FEW020 BKN028 06/02 Q1013 SSW (210°) 15.0mph 6°C 2°C
19/02/20 11:50 EGNV 191150Z 19009KT 9999 FEW030 06/02 Q1013 S (190°) 10.4mph 6°C 2°C
19/02/20 11:20 EGNV 191120Z 22013KT 9999 FEW035 06/02 Q1014 SW (220°) 15.0mph 6°C 2°C
19/02/20 10:50 EGNV 191050Z 22013KT 9999 FEW035 06/02 Q1014 SW (220°) 15.0mph 6°C 2°C
19/02/20 10:20 EGNV 191020Z 22010KT 9999 FEW030 05/01 Q1014 SW (220°) 11.5mph 5°C 1°C
19/02/20 09:50 EGNV 190950Z 23012KT 9999 FEW035 05/01 Q1014 SW (230°) 13.8mph 5°C 1°C
19/02/20 09:20 EGNV 190920Z 21010KT 9999 FEW035 05/01 Q1014 SSW (210°) 11.5mph 5°C 1°C
19/02/20 08:50 EGNV 190850Z 22008KT 9999 FEW040 04/01 Q1014 SW (220°) 9.2mph 4°C 1°C
19/02/20 07:50 EGNV 190750Z 23008KT CAVOK 03/M00 Q1014 SW (230°) 9.2mph 3°C 0°C
19/02/20 07:20 EGNV 190720Z 25012KT CAVOK 03/M01 Q1013 WSW (250°) 13.8mph 3°C -1°C
19/02/20 06:20 EGNV 190620Z 25016KT CAVOK 03/M01 Q1013 WSW (250°) 18.4mph 3°C -1°C
19/02/20 05:50 EGNV 190550Z 23006KT CAVOK 02/M01 Q1013 SW (230°) 6.9mph 2°C -1°C
18/02/20 21:50 EGNV 182150Z 27017KT CAVOK 04/M01 Q1008 W (270°) 19.6mph 4°C -1°C
18/02/20 21:20 EGNV 182120Z 26013G23KT CAVOK 03/M00 Q1008 W (260°) 15.0mph 26.5mph 3°C 0°C
18/02/20 20:50 EGNV 182050Z 24011KT CAVOK 03/M00 Q1007 WSW (240°) 12.7mph 3°C 0°C
18/02/20 20:20 EGNV 182020Z 25009KT 9999 FEW030 03/M00 Q1007 WSW (250°) 10.4mph 3°C 0°C
18/02/20 19:50 EGNV 181950Z 24010KT 9999 FEW025 03/00 Q1007 WSW (240°) 11.5mph 3°C 0°C
18/02/20 18:50 EGNV 181850Z 26011KT 9999 FEW025 03/01 Q1007 W (260°) 12.7mph 3°C 1°C
18/02/20 18:20 EGNV 181820Z 25013KT 9999 -RA FEW020 SCT032 05/01 Q1007 -RA WSW (250°) 15.0mph 5°C 1°C
18/02/20 17:50 EGNV 181750Z 25015KT 9999 FEW020 05/01 Q1006 WSW (250°) 17.3mph 5°C 1°C
18/02/20 17:20 EGNV 181720Z 23016G28KT 9999 -SHRA FEW022 05/02 Q1006 -SHRA SW (230°) 18.4mph 32.2mph 5°C 2°C
18/02/20 16:20 EGNV 181620Z 22008KT 9999 FEW025 06/03 Q1005 SW (220°) 9.2mph 6°C 3°C
18/02/20 15:50 EGNV 181550Z 24016KT 9999 VCSH FEW015 06/03 Q1005 VCSH WSW (240°) 18.4mph 6°C 3°C
18/02/20 14:50 EGNV 181450Z 23014KT 9999 -RADZ FEW015 SCT028 05/03 Q1006 -RA -DZ SW (230°) 16.1mph 5°C 3°C
18/02/20 14:20 EGNV 181420Z 24019G30KT 9999 6000SE -RA FEW012 BKN020 05/03 Q1007 -RA WSW (240°) 21.9mph 34.5mph 5°C 3°C